This is the latest recevied weather packets stored in our database for station/object EA7HQL-10. If no packets are shown the sender has not sent any weather packets the latest 1 day(s).
| Time | Temp. | Humidity | Pressure | Rain* | Wind** | Luminosity | Snow |
|---|---|---|---|---|---|---|---|
| 1777982224 | 23.89° C | 37% | 1011 hPa | 0 mm | 2.68 m/s, 359° | - | - |
| 1777981924 | 23.33° C | 39% | 1011.1 hPa | 0 mm | 0 m/s | - | - |
| 1777981659 | 23.33° C | 40% | 1011.1 hPa | 0 mm | 2.24 m/s, 15° | - | - |
| 1777981397 | 22.78° C | 39% | 1011.4 hPa | 0 mm | 4.02 m/s, 8° | - | - |
| 1777981124 | 22.78° C | 39% | 1011.3 hPa | 0 mm | 4.02 m/s, 351° | - | - |
| 1777980854 | 23.33° C | 39% | 1011.4 hPa | 0 mm | 2.68 m/s, 238° | - | - |
| 1777980604 | 22.78° C | 40% | 1011.2 hPa | 0 mm | 3.13 m/s, 207° | - | - |
| 1777980314 | 23.33° C | 39% | 1011.4 hPa | 0 mm | 1.34 m/s, 269° | - | - |
| 1777980049 | 23.33° C | 39% | 1011.5 hPa | 0 mm | 2.68 m/s, 332° | - | - |
| 1777979784 | 23.89° C | 38% | 1011.4 hPa | 0 mm | 1.34 m/s, 347° | - | - |
| 1777979519 | 22.78° C | 40% | 1011.5 hPa | 0 mm | 1.34 m/s, 111° | - | - |
| 1777979274 | 23.33° C | 39% | 1011.6 hPa | 0 mm | 4.92 m/s, 16° | - | - |
| 1777979014 | 22.78° C | 40% | 1011.7 hPa | 0 mm | 1.79 m/s, 344° | - | - |
| 1777978714 | 22.78° C | 40% | 1011.7 hPa | 0 mm | 2.24 m/s, 223° | - | - |
| 1777978439 | 22.78° C | 39% | 1011.8 hPa | 0 mm | 2.24 m/s, 355° | - | - |
| 1777978164 | 22.78° C | 39% | 1011.8 hPa | 0 mm | 1.79 m/s, 286° | - | - |
| 1777977914 | 22.22° C | 38% | 1011.7 hPa | 0 mm | 1.79 m/s, 336° | - | - |
| 1777977673 | 22.78° C | 38% | 1011.7 hPa | 0 mm | 2.68 m/s, 281° | - | - |
| 1777977384 | 22.78° C | 39% | 1011.7 hPa | 0 mm | 4.47 m/s, 242° | - | - |
| 1777977104 | 22.78° C | 37% | 1011.8 hPa | 0 mm | 3.13 m/s, 332° | - | - |
| 1777976814 | 22.78° C | 39% | 1011.7 hPa | 0 mm | 1.79 m/s, 324° | - | - |
| 1777976544 | 22.22° C | 40% | 1011.8 hPa | 0 mm | 1.34 m/s, 350° | - | - |
| 1777976282 | 22.22° C | 40% | 1011.8 hPa | 0 mm | 1.79 m/s, 239° | - | - |
* Rain latest hour (hover to see other rain measurements)
** Current wind speed in m/s (hover to see current wind gust speed)